createdAt,value
2023-01-07T00:01:48.062Z,101529.41
2023-01-07T00:04:16.392Z,101522.38
2023-01-07T00:06:47.215Z,101517.09
2023-01-07T00:09:18.565Z,101522.38
2023-01-07T00:11:46.081Z,101519.75
2023-01-07T00:14:14.798Z,101513.56
2023-01-07T00:16:43.131Z,101517.09
2023-01-07T00:19:14.868Z,101507.44
2023-01-07T00:21:42.924Z,101515.41
2023-01-07T00:24:11.639Z,101507.53
2023-01-07T00:26:40.550Z,101498.72
2023-01-07T00:29:08.844Z,101504.84
2023-01-07T00:31:39.424Z,101500.47
2023-01-07T00:34:08.800Z,101497.84
2023-01-07T00:36:44.761Z,101487.31
2023-01-07T00:39:19.388Z,101488.19
2023-01-07T00:42:08.143Z,101493.47
2023-01-07T00:44:37.654Z,101481.16
2023-01-07T00:47:05.393Z,101489.03
2023-01-07T00:49:33.271Z,101483.78
2023-01-07T00:52:00.757Z,101487.31
2023-01-07T00:54:28.347Z,101489.97
2023-01-07T00:56:56.013Z,101484.72
2023-01-07T00:59:23.521Z,101486.50
2023-01-07T01:01:51.968Z,101471.56
2023-01-07T01:04:19.512Z,101470.72
2023-01-07T01:06:47.105Z,101469.84
2023-01-07T01:09:14.712Z,101474.28
2023-01-07T01:11:42.242Z,101473.44
2023-01-07T01:14:12.037Z,101469.06
2023-01-07T01:16:39.718Z,101458.63
2023-01-07T01:19:07.532Z,101462.13
2023-01-07T01:21:34.939Z,101454.31
2023-01-07T01:24:02.441Z,101456.94
2023-01-07T01:26:29.948Z,101461.38
2023-01-07T01:28:57.578Z,101451.75
2023-01-07T01:31:25.788Z,101453.53
2023-01-07T01:33:58.055Z,101446.53
2023-01-07T01:36:25.626Z,101450.16
2023-01-07T01:38:57.474Z,101454.59
2023-01-07T01:41:25.757Z,101458.06
2023-01-07T01:43:55.623Z,101441.41
2023-01-07T01:46:38.029Z,101446.63
2023-01-07T01:49:41.441Z,101447.56
2023-01-07T01:52:16.886Z,101445.84
2023-01-07T01:54:55.346Z,101438.81
2023-01-07T01:57:25.472Z,101441.47
2023-01-07T01:59:57.393Z,101428.38
2023-01-07T02:02:36.430Z,101431.88
2023-01-07T02:05:05.175Z,101438.06
2023-01-07T02:07:32.682Z,101442.47
2023-01-07T02:10:11.899Z,101438.09
2023-01-07T02:13:49.447Z,101437.25
2023-01-07T02:16:37.391Z,101437.31
2023-01-07T02:19:41.950Z,101443.44
2023-01-07T02:23:02.486Z,101436.47
2023-01-07T02:26:13.627Z,101437.34
2023-01-07T02:29:50.979Z,101442.63
2023-01-07T02:32:53.196Z,101439.97
2023-01-07T02:35:36.160Z,101439.09
2023-01-07T02:38:21.918Z,101441.72
2023-01-07T02:41:32.205Z,101437.31
2023-01-07T02:44:11.919Z,101438.16
2023-01-07T02:47:06.646Z,101440.72
2023-01-07T02:49:35.549Z,101430.28
2023-01-07T02:52:24.883Z,101426.72
2023-01-07T02:55:12.059Z,101424.09
2023-01-07T02:57:46.357Z,101431.94
2023-01-07T03:00:39.877Z,101417.03
2023-01-07T03:03:44.549Z,101417.03
2023-01-07T03:06:24.329Z,101413.50
2023-01-07T03:09:22.458Z,101410.00
2023-01-07T03:12:11.669Z,101401.25
2023-01-07T03:14:50.739Z,101398.66
2023-01-07T03:17:34.495Z,101396.03
2023-01-07T03:20:05.689Z,101400.41
2023-01-07T03:22:37.444Z,101396.91
2023-01-07T03:25:06.967Z,101391.63
2023-01-07T03:27:36.773Z,101389.00
2023-01-07T03:30:12.894Z,101373.25
2023-01-07T03:33:01.652Z,101379.38
2023-01-07T03:35:34.819Z,101370.66
2023-01-07T03:38:05.061Z,101377.63
2023-01-07T03:40:32.915Z,101367.09
2023-01-07T03:43:00.829Z,101365.34
2023-01-07T03:45:29.250Z,101362.72
2023-01-07T03:47:59.227Z,101360.94
2023-01-07T03:50:35.343Z,101363.63
2023-01-07T03:53:03.573Z,101356.59
2023-01-07T03:55:34.413Z,101355.69
2023-01-07T03:58:02.425Z,101360.09
2023-01-07T04:00:29.923Z,101356.56
2023-01-07T04:03:06.476Z,101353.97
2023-01-07T04:05:38.911Z,101353.06
2023-01-07T04:08:06.356Z,101347.81
2023-01-07T04:10:36.869Z,101349.56
2023-01-07T04:13:04.323Z,101339.03
2023-01-07T04:15:32.057Z,101338.19
2023-01-07T04:17:59.639Z,101335.50
2023-01-07T04:20:28.199Z,101332.94
2023-01-07T04:22:55.713Z,101338.19
2023-01-07T04:25:23.667Z,101332.94
2023-01-07T04:27:51.366Z,101335.56
2023-01-07T04:30:18.886Z,101334.66
2023-01-07T04:32:46.328Z,101325.06
2023-01-07T04:35:13.796Z,101326.78
2023-01-07T04:37:41.407Z,101321.50
2023-01-07T04:40:09.832Z,101307.47
2023-01-07T04:42:38.173Z,101309.19
2023-01-07T04:45:09.054Z,101302.16
2023-01-07T04:47:36.827Z,101295.13
2023-01-07T04:50:05.333Z,101295.13
2023-01-07T04:52:35.806Z,101292.50
2023-01-07T04:55:05.137Z,101289.88
2023-01-07T04:57:32.982Z,101287.28
2023-01-07T05:00:00.860Z,101288.16
2023-01-07T05:02:28.480Z,101277.66
2023-01-07T05:04:56.353Z,101284.69
2023-01-07T05:07:23.782Z,101282.94
2023-01-07T05:09:52.111Z,101273.34
2023-01-07T05:12:20.385Z,101274.22
2023-01-07T05:14:48.775Z,101275.13
2023-01-07T05:17:16.399Z,101269.91
2023-01-07T05:19:45.048Z,101268.19
2023-01-07T05:22:14.224Z,101266.50
2023-01-07T05:24:42.624Z,101269.97
2023-01-07T05:27:10.621Z,101265.59
2023-01-07T05:29:39.127Z,101271.75
2023-01-07T05:32:06.619Z,101269.13
2023-01-07T05:34:35.503Z,101271.69
2023-01-07T05:37:03.929Z,101269.97
2023-01-07T05:39:31.740Z,101268.19
2023-01-07T05:41:59.891Z,101266.41
2023-01-07T05:44:27.687Z,101264.63
2023-01-07T05:46:55.129Z,101275.97
2023-01-07T05:49:22.746Z,101264.59
2023-01-07T05:51:50.414Z,101262.81
2023-01-07T05:54:17.891Z,101264.53
2023-01-07T05:56:45.371Z,101264.50
2023-01-07T05:59:12.942Z,101262.69
2023-01-07T06:01:40.355Z,101254.78
2023-01-07T06:04:08.318Z,101258.28
2023-01-07T06:06:35.899Z,101252.09
2023-01-07T06:09:03.699Z,101248.56
2023-01-07T06:11:31.508Z,101247.63
2023-01-07T06:13:58.935Z,101240.63
2023-01-07T06:16:26.372Z,101234.50
2023-01-07T06:18:57.782Z,101238.84
2023-01-07T06:21:25.244Z,101230.09
2023-01-07T06:23:52.815Z,101232.72
2023-01-07T06:26:20.268Z,101232.72
2023-01-07T06:28:47.786Z,101229.16
2023-01-07T06:31:15.281Z,101221.28
2023-01-07T06:33:42.796Z,101223.91
2023-01-07T06:36:12.136Z,101218.66
2023-01-07T06:38:41.554Z,101213.38
2023-01-07T06:41:09.316Z,101208.13
2023-01-07T06:43:36.862Z,101208.13
2023-01-07T06:46:04.817Z,101202.88
2023-01-07T06:48:32.295Z,101209.03
2023-01-07T06:50:59.780Z,101202.00
2023-01-07T06:53:27.240Z,101202.84
2023-01-07T06:55:54.727Z,101191.47
2023-01-07T06:58:22.468Z,101188.84
2023-01-07T07:00:50.198Z,101182.72
2023-01-07T07:03:17.801Z,101178.34
2023-01-07T07:05:45.437Z,101180.97
2023-01-07T07:08:13.003Z,101182.69
2023-01-07T07:10:40.559Z,101178.34
2023-01-07T07:13:08.443Z,101177.47
2023-01-07T07:15:35.896Z,101172.22
2023-01-07T07:18:03.763Z,101171.31
2023-01-07T07:20:31.227Z,101174.88
2023-01-07T07:22:58.744Z,101173.13
2023-01-07T07:25:26.220Z,101167.91
2023-01-07T07:27:53.686Z,101168.78
2023-01-07T07:30:21.151Z,101161.75
2023-01-07T07:32:48.641Z,101165.22
2023-01-07T07:35:16.109Z,101162.69
2023-01-07T07:37:43.803Z,101160.03
2023-01-07T07:40:11.827Z,101160.06
2023-01-07T07:43:09.485Z,101154.81
2023-01-07T07:45:27.233Z,101156.59
2023-01-07T07:47:54.638Z,101148.72
2023-01-07T07:50:22.301Z,101153.09
2023-01-07T07:52:49.793Z,101148.72
2023-01-07T07:55:19.956Z,101142.53
2023-01-07T07:57:57.119Z,101146.91
2023-01-07T08:00:25.476Z,101145.16
2023-01-07T08:02:52.985Z,101151.25
2023-01-07T08:05:20.516Z,101149.53
2023-01-07T08:07:47.942Z,101143.34
2023-01-07T08:10:15.430Z,101145.97
2023-01-07T08:12:42.993Z,101141.56
2023-01-07T08:15:10.745Z,101141.56
2023-01-07T08:17:38.352Z,101137.16
2023-01-07T08:20:07.853Z,101135.41
2023-01-07T08:22:35.714Z,101136.25
2023-01-07T08:25:03.601Z,101129.25
2023-01-07T08:27:32.405Z,101139.72
2023-01-07T08:29:59.794Z,101134.41
2023-01-07T08:32:27.346Z,101133.53
2023-01-07T08:34:56.200Z,101128.25
2023-01-07T08:37:23.740Z,101129.97
2023-01-07T08:39:51.205Z,101121.19
2023-01-07T08:42:18.671Z,101118.50
2023-01-07T08:44:46.191Z,101118.47
2023-01-07T08:47:14.520Z,101115.81
2023-01-07T08:49:42.166Z,101111.41
2023-01-07T08:52:09.641Z,101107.84
2023-01-07T08:54:37.085Z,101110.44
2023-01-07T08:57:04.601Z,101110.44
2023-01-07T08:59:32.001Z,101112.19
2023-01-07T09:01:59.517Z,101116.56
2023-01-07T09:04:27.032Z,101112.19
2023-01-07T09:06:56.665Z,101113.06
2023-01-07T09:09:24.216Z,101107.75
2023-01-07T09:11:51.828Z,101108.63
2023-01-07T09:14:20.704Z,101112.06
2023-01-07T09:16:48.175Z,101107.69
2023-01-07T09:19:15.812Z,101091.00
2023-01-07T09:21:43.640Z,101090.94
2023-01-07T09:24:11.384Z,101088.28
2023-01-07T09:26:38.816Z,101094.38
2023-01-07T09:29:06.192Z,101082.09
2023-01-07T09:31:33.702Z,101089.94
2023-01-07T09:34:01.212Z,101085.50
2023-01-07T09:36:28.715Z,101080.19
2023-01-07T09:38:56.165Z,101081.84
2023-01-07T09:41:50.967Z,101074.72
2023-01-07T09:44:36.324Z,101069.47
2023-01-07T09:47:06.483Z,101074.63
2023-01-07T09:49:34.611Z,101070.13
2023-01-07T09:52:26.540Z,101062.19
2023-01-07T09:55:02.969Z,101059.66
2023-01-07T09:57:30.333Z,101064.88
2023-01-07T09:59:57.763Z,101066.53
2023-01-07T10:02:44.045Z,101066.44
2023-01-07T10:05:58.090Z,101061.91
2023-01-07T10:08:52.811Z,101055.66
2023-01-07T10:12:05.791Z,101049.50
2023-01-07T10:15:14.084Z,101037.16
2023-01-07T10:18:06.877Z,101032.66
2023-01-07T10:21:06.040Z,101022.84
2023-01-07T10:23:41.192Z,101022.66
2023-01-07T10:26:41.215Z,101022.50
2023-01-07T10:29:26.675Z,101009.22
2023-01-07T10:32:00.104Z,101002.09
2023-01-07T10:34:37.389Z,100982.69
2023-01-07T10:37:32.504Z,100979.06
2023-01-07T10:40:46.422Z,100980.69
2023-01-07T10:43:45.308Z,100962.97
2023-01-07T10:46:44.880Z,100962.84
2023-01-07T10:49:45.550Z,100954.00
2023-01-07T10:52:41.210Z,100938.06
2023-01-07T10:55:27.396Z,100930.09
2023-01-07T10:57:54.829Z,100926.44
2023-01-07T11:00:25.271Z,100924.59
2023-01-07T11:02:59.039Z,100928.91
2023-01-07T11:05:37.646Z,100925.28
2023-01-07T11:08:19.492Z,100919.13
2023-01-07T11:10:48.015Z,100907.63
2023-01-07T11:13:30.593Z,100916.34
2023-01-07T11:16:10.170Z,100903.16
2023-01-07T11:19:10.642Z,100905.69
2023-01-07T11:21:43.623Z,100897.75
2023-01-07T11:24:28.035Z,100899.41
2023-01-07T11:27:18.473Z,100895.88
2023-01-07T11:30:15.396Z,100881.81
2023-01-07T11:32:58.682Z,100876.50
2023-01-07T11:35:31.604Z,100872.06
2023-01-07T11:38:01.771Z,100870.25
2023-01-07T11:40:32.828Z,100867.69
2023-01-07T11:43:22.425Z,100870.25
2023-01-07T11:46:19.563Z,100865.78
2023-01-07T11:49:03.286Z,100856.88
2023-01-07T11:51:40.876Z,100854.13
2023-01-07T11:54:21.893Z,100842.53
2023-01-07T11:56:54.044Z,100838.97
2023-01-07T11:59:30.496Z,100843.25
2023-01-07T12:01:59.777Z,100823.91
2023-01-07T12:04:35.642Z,100824.59
2023-01-07T12:07:15.161Z,100820.22
2023-01-07T12:09:45.760Z,100820.94
2023-01-07T12:12:34.134Z,100812.09
2023-01-07T12:15:19.690Z,100805.03
2023-01-07T12:18:15.396Z,100787.53
2023-01-07T12:21:37.007Z,100777.84
2023-01-07T12:24:38.851Z,100776.19
2023-01-07T12:28:02.224Z,100774.28
2023-01-07T12:30:49.565Z,100769.88
2023-01-07T12:33:59.241Z,100753.94
2023-01-07T12:36:54.407Z,100753.94
2023-01-07T12:39:35.956Z,100746.03
2023-01-07T12:42:14.119Z,100748.63
2023-01-07T12:44:55.292Z,100742.41
2023-01-07T12:47:38.769Z,100735.31
2023-01-07T12:50:18.233Z,100728.19
2023-01-07T12:53:11.145Z,100719.25
2023-01-07T12:55:57.323Z,100724.44
2023-01-07T12:58:57.986Z,100725.22
2023-01-07T13:01:35.738Z,100712.84
2023-01-07T13:04:28.626Z,100715.34
2023-01-07T13:07:13.879Z,100697.69
2023-01-07T13:10:24.413Z,100686.34
2023-01-07T13:13:04.254Z,100689.91
2023-01-07T13:15:41.618Z,100677.69
2023-01-07T13:18:12.187Z,100673.50
2023-01-07T13:21:20.213Z,100668.34
2023-01-07T13:24:09.334Z,100663.38
2023-01-07T13:27:09.472Z,100674.97
2023-01-07T13:29:48.604Z,100673.41
2023-01-07T13:32:45.918Z,100666.47
2023-01-07T13:36:03.932Z,100662.25
2023-01-07T13:38:56.786Z,100653.56
2023-01-07T13:41:47.072Z,100643.88
2023-01-07T13:44:52.492Z,100636.78
2023-01-07T13:47:25.313Z,100632.34
2023-01-07T13:50:02.521Z,100635.06
2023-01-07T13:52:33.497Z,100629.84
2023-01-07T13:55:23.838Z,100620.34
2023-01-07T13:57:51.530Z,100613.47
2023-01-07T14:00:41.758Z,100609.97
2023-01-07T14:03:33.012Z,100608.38
2023-01-07T14:06:31.991Z,100608.50
2023-01-07T14:09:08.566Z,100607.78
2023-01-07T14:11:36.377Z,100600.00
2023-01-07T14:14:41.528Z,100594.88
2023-01-07T14:17:33.623Z,100587.22
2023-01-07T14:20:49.419Z,100579.50
2023-01-07T14:23:42.503Z,100578.00
2023-01-07T14:26:40.592Z,100567.59
2023-01-07T14:29:31.080Z,100557.06
2023-01-07T14:32:32.930Z,100566.84
2023-01-07T14:35:22.494Z,100566.06
2023-01-07T14:37:49.912Z,100574.09
2023-01-07T14:40:26.448Z,100572.38
2023-01-07T14:42:55.678Z,100569.84
2023-01-07T14:45:41.458Z,100571.72
2023-01-07T14:48:28.818Z,100571.91
2023-01-07T14:51:35.471Z,100564.97
2023-01-07T14:54:30.970Z,100557.31
2023-01-07T14:57:19.204Z,100553.97
2023-01-07T15:00:11.789Z,100548.81
2023-01-07T15:03:16.602Z,100543.69
2023-01-07T15:06:20.478Z,100544.72
2023-01-07T15:09:19.804Z,100552.81
2023-01-07T15:12:14.016Z,100539.78
2023-01-07T15:15:07.565Z,100533.75
2023-01-07T15:17:40.387Z,100540.88
2023-01-07T15:20:14.532Z,100547.13
2023-01-07T15:23:15.959Z,100546.28
2023-01-07T15:26:07.278Z,100533.28
2023-01-07T15:28:54.820Z,100535.16
2023-01-07T15:31:42.234Z,100537.00
2023-01-07T15:34:16.874Z,100514.41
2023-01-07T15:36:50.214Z,100510.16
2023-01-07T15:39:33.318Z,100512.91
2023-01-07T15:42:04.519Z,100511.28
2023-01-07T15:44:41.316Z,100512.28
2023-01-07T15:47:41.250Z,100503.59
2023-01-07T15:50:28.209Z,100502.03
2023-01-07T15:52:59.940Z,100501.25
2023-01-07T15:55:28.937Z,100498.03
2023-01-07T15:58:06.209Z,100498.09
2023-01-07T16:00:37.189Z,100497.16
2023-01-07T16:03:06.021Z,100491.06
2023-01-07T16:05:40.234Z,100487.56
2023-01-07T16:08:19.128Z,100478.81
2023-01-07T16:11:11.836Z,100483.25
2023-01-07T16:13:42.190Z,100472.91
2023-01-07T16:16:17.011Z,100479.91
2023-01-07T16:18:57.699Z,100480.78
2023-01-07T16:21:31.711Z,100476.47
2023-01-07T16:23:59.210Z,100476.47
2023-01-07T16:26:41.562Z,100463.31
2023-01-07T16:29:18.467Z,100462.41
2023-01-07T16:31:46.796Z,100459.84
2023-01-07T16:34:26.633Z,100460.69
2023-01-07T16:36:59.010Z,100466.84
2023-01-07T16:39:41.548Z,100462.47
2023-01-07T16:42:27.186Z,100458.09
2023-01-07T16:44:54.708Z,100459.06
2023-01-07T16:47:25.579Z,100461.75
2023-01-07T16:49:56.261Z,100453.91
2023-01-07T16:52:33.051Z,100456.53
2023-01-07T16:55:01.364Z,100468.00
2023-01-07T16:57:33.292Z,100462.75
2023-01-07T17:00:04.607Z,100458.34
2023-01-07T17:02:48.731Z,100446.09
2023-01-07T17:05:23.066Z,100450.47
2023-01-07T17:07:58.269Z,100453.97
2023-01-07T17:10:36.099Z,100450.47
2023-01-07T17:13:31.880Z,100454.91
2023-01-07T17:16:30.605Z,100440.97
2023-01-07T17:19:26.327Z,100449.78
2023-01-07T17:21:55.071Z,100443.75
2023-01-07T17:24:28.577Z,100441.94
2023-01-07T17:27:02.720Z,100441.06
2023-01-07T17:29:37.486Z,100435.81
2023-01-07T17:32:05.684Z,100437.63
2023-01-07T17:34:35.728Z,100436.78
2023-01-07T17:37:03.125Z,100437.72
2023-01-07T17:39:30.711Z,100439.53
2023-01-07T17:42:16.855Z,100437.03
2023-01-07T17:44:45.983Z,100427.59
2023-01-07T17:47:14.828Z,100427.72
2023-01-07T17:49:42.827Z,100421.69
2023-01-07T17:52:10.833Z,100414.78
2023-01-07T17:54:45.452Z,100414.88
2023-01-07T17:57:12.875Z,100418.44
2023-01-07T17:59:48.913Z,100401.03
2023-01-07T18:02:20.723Z,100401.91
2023-01-07T18:04:48.350Z,100393.19
2023-01-07T18:07:15.946Z,100396.75
2023-01-07T18:09:44.450Z,100393.22
2023-01-07T18:12:30.975Z,100390.59
2023-01-07T18:15:03.467Z,100377.59
2023-01-07T18:17:31.018Z,100378.56
2023-01-07T18:20:03.860Z,100382.91
2023-01-07T18:22:31.324Z,100374.22
2023-01-07T18:24:59.388Z,100387.38
2023-01-07T18:27:26.816Z,100381.25
2023-01-07T18:29:55.478Z,100388.28
2023-01-07T18:32:22.983Z,100378.69
2023-01-07T18:34:50.479Z,100383.03
2023-01-07T18:37:17.977Z,100377.78
2023-01-07T18:39:46.023Z,100380.41
2023-01-07T18:42:13.850Z,100373.34
2023-01-07T18:44:41.314Z,100386.47
2023-01-07T18:47:08.927Z,100383.81
2023-01-07T18:49:36.332Z,100375.84
2023-01-07T18:52:03.870Z,100374.09
2023-01-07T18:54:33.146Z,100375.78
2023-01-07T18:57:00.832Z,100384.50
2023-01-07T18:59:28.208Z,100387.97
2023-01-07T19:02:00.054Z,100376.59
2023-01-07T19:04:28.282Z,100375.66
2023-01-07T19:06:56.486Z,100384.34
2023-01-07T19:09:24.178Z,100381.63
2023-01-07T19:11:51.600Z,100374.53
2023-01-07T19:14:19.580Z,100372.63
2023-01-07T19:16:47.063Z,100386.66
2023-01-07T19:19:14.599Z,100390.03
2023-01-07T19:21:42.939Z,100388.19
2023-01-07T19:24:10.418Z,100379.38
2023-01-07T19:26:38.096Z,100379.25
2023-01-07T19:29:05.891Z,100368.72
2023-01-07T19:31:34.474Z,100365.97
2023-01-07T19:34:04.714Z,100358.97
2023-01-07T19:36:32.337Z,100368.59
2023-01-07T19:39:00.389Z,100359.81
2023-01-07T19:41:28.344Z,100364.09
2023-01-07T19:44:00.995Z,100367.50
2023-01-07T19:46:29.256Z,100364.81
2023-01-07T19:48:56.701Z,100363.94
2023-01-07T19:51:24.130Z,100340.25
2023-01-07T19:53:51.578Z,100348.09
2023-01-07T19:56:19.058Z,100347.16
2023-01-07T19:58:46.639Z,100346.28
2023-01-07T20:01:18.063Z,100358.38
2023-01-07T20:03:46.410Z,100352.28
2023-01-07T20:06:17.855Z,100347.88
2023-01-07T20:08:46.101Z,100352.28
2023-01-07T20:11:14.800Z,100354.84
2023-01-07T20:13:46.762Z,100348.69
2023-01-07T20:16:21.768Z,100351.31
2023-01-07T20:18:52.992Z,100339.03
2023-01-07T20:21:26.191Z,100366.97
2023-01-07T20:23:54.603Z,100348.56
2023-01-07T20:26:25.970Z,100350.28
2023-01-07T20:28:54.641Z,100354.63
2023-01-07T20:31:24.607Z,100360.72
2023-01-07T20:33:55.603Z,100354.56
2023-01-07T20:36:30.366Z,100335.19
2023-01-07T20:39:03.853Z,100344.06
2023-01-07T20:41:33.255Z,100334.34
2023-01-07T20:44:04.576Z,100321.19
2023-01-07T20:46:35.012Z,100322.09
2023-01-07T20:49:02.660Z,100322.19
2023-01-07T20:51:31.180Z,100324.84
2023-01-07T20:54:05.890Z,100329.25
2023-01-07T20:56:33.402Z,100317.84
2023-01-07T20:59:02.756Z,100325.69
2023-01-07T21:01:30.384Z,100317.84
2023-01-07T21:03:58.266Z,100319.66
2023-01-07T21:06:25.675Z,100324.00
2023-01-07T21:08:53.294Z,100318.81
2023-01-07T21:11:23.130Z,100314.41
2023-01-07T21:13:52.206Z,100309.13
2023-01-07T21:16:19.901Z,100317.09
2023-01-07T21:18:47.914Z,100316.22
2023-01-07T21:21:19.360Z,100319.78
2023-01-07T21:23:48.262Z,100317.16
2023-01-07T21:26:16.515Z,100317.16
2023-01-07T21:28:44.847Z,100327.63
2023-01-07T21:31:15.388Z,100319.66
2023-01-07T21:33:44.134Z,100318.81
2023-01-07T21:36:19.480Z,100324.00
2023-01-07T21:38:53.631Z,100320.47
2023-01-07T21:41:23.428Z,100310.88
2023-01-07T21:44:04.292Z,100303.00
2023-01-07T21:46:31.879Z,100306.47
2023-01-07T21:49:01.167Z,100308.25
2023-01-07T21:51:28.879Z,100302.06
2023-01-07T21:53:58.434Z,100301.22
2023-01-07T21:56:32.164Z,100295.94
2023-01-07T21:59:00.257Z,100308.25
2023-01-07T22:01:29.247Z,100303.88
2023-01-07T22:03:59.139Z,100300.44
2023-01-07T22:06:35.859Z,100300.44
2023-01-07T22:09:13.517Z,100297.09
2023-01-07T22:11:43.491Z,100302.50
2023-01-07T22:14:18.455Z,100306.00
2023-01-07T22:16:48.944Z,100307.97
2023-01-07T22:19:19.701Z,100306.31
2023-01-07T22:21:50.048Z,100305.53
2023-01-07T22:24:17.581Z,100303.84
2023-01-07T22:26:45.024Z,100307.44
2023-01-07T22:29:36.696Z,100309.13
2023-01-07T22:32:04.591Z,100303.13
2023-01-07T22:34:32.485Z,100301.41
2023-01-07T22:37:17.519Z,100292.72
2023-01-07T22:39:55.635Z,100279.66
2023-01-07T22:42:34.265Z,100285.75
2023-01-07T22:45:20.190Z,100292.78
2023-01-07T22:47:50.942Z,100285.75
2023-01-07T22:50:19.222Z,100291.00
2023-01-07T22:52:47.342Z,100290.06
2023-01-07T22:55:17.055Z,100294.34
2023-01-07T22:57:44.624Z,100295.16
2023-01-07T23:00:52.154Z,100288.06
2023-01-07T23:03:21.374Z,100288.94
2023-01-07T23:05:49.920Z,100295.91
2023-01-07T23:08:18.092Z,100282.69
2023-01-07T23:10:45.841Z,100285.22
2023-01-07T23:13:17.992Z,100273.88
2023-01-07T23:15:48.332Z,100277.22
2023-01-07T23:18:42.541Z,100278.13
2023-01-07T23:21:13.181Z,100288.66
2023-01-07T23:23:40.577Z,100283.41
2023-01-07T23:26:08.093Z,100285.06
2023-01-07T23:28:35.529Z,100283.28
2023-01-07T23:31:02.987Z,100285.03
2023-01-07T23:33:30.423Z,100278.00
2023-01-07T23:36:07.652Z,100268.31
2023-01-07T23:38:42.632Z,100266.59
2023-01-07T23:41:12.239Z,100270.94
2023-01-07T23:43:39.749Z,100272.69
2023-01-07T23:46:08.576Z,100269.13
2023-01-07T23:48:38.234Z,100262.97
2023-01-07T23:51:13.765Z,100261.19
2023-01-07T23:53:42.228Z,100274.38
2023-01-07T23:56:10.520Z,100263.06
2023-01-07T23:58:38.692Z,100258.75
